Grand Forks, ND (58201)

6:57 PM CDT on July 22, 2014 (GMT -0500)
NDDOT Grand Forks I-29 MP 145 (MND019) Elev 916 ft | 47.98 °N, 97.09 °W | Change Station

Current weather conditions updated 51 minutes ago

Partly Cloudy
Partly Cloudy
76 °F
Feels Like 78 °F
N
9
Wind Variable Wind from NNW
Gusts 16.0 mph

Tomorrow is forecast to be nearly the same temperature as today.

Today
High -- | Low -- °F
--% Chance of Precip.
Yesterday
High -- | Low -- °F
Precip. -- in
5:52 AM 9:16 PM
Waning Crescent, 14% visible
Pressure 30.18 in
Visibility 10.0 miles
Clouds Few 5000 ft
Scattered Clouds 25000 ft
Heat Index 78 °F
Dew Point 54 °F
Humidity 48%
Rainfall -999.00 in
Snow Depth Not available.
UV 1 out of 12
Pollen 4.00 out of 12
Air Quality Not available.
Flu Activity Not available.
METAR KGFK 222353Z 36009KT 10SM FEW050 SCT250 24/14 A3018 RMK AO2 SLP219 T02390144 10250 20233 53006

More Conditions Fewer Conditions

Pressure 30.18 in
Visibility 10.0 miles
Clouds Few 5000 ft
Scattered Clouds 25000 ft
Heat Index 78 °F
Dew Point 54 °F
Humidity 48%
Rainfall -999.00 in
Snow Depth Not available.
UV 1 out of 12
Pollen 4.00 out of 12
Air Quality Not available.
Flu Activity Not available.
METAR KGFK 222353Z 36009KT 10SM FEW050 SCT250 24/14 A3018 RMK AO2 SLP219 T02390144 10250 20233 53006

More Conditions Fewer Conditions

10-Day Weather Forecast

Almanac

Astronomy

Jul. 22, 2014 Rise Set
Actual Time 5:52 AM CDT 9:16 PM CDT
Civil Twilight 5:14 AM CDT 9:54 PM CDT
Nautical Twilight 4:24 AM CDT 10:44 PM CDT
Astronomical Twilight 3:18 AM CDT 11:49 PM CDT
Moon 2:29 AM CDT 5:52 PM CDT
Length of Visible Light 16h 39m
Length of Day
15h 23m
Tomorrow will be 2m 18s shorter.
Waning Crescent, 14% of the Moon is Illuminated
Today
Waning Crescent
Jul 26
New
Aug 3
First Quarter
Aug 10
Full
Aug 17
Last Quarter

Today's Extremes

State Highs State Lows

Community

WunderPhotos

Upload Photos

1,736,391 photos uploaded!

Nearby

Snow Depth

Station Depth Elevation
No new snow has been reported.

Earthquake Activity

City Distance Mag. Time & Date
No recent earthquake activity has been reported nearby.
Minimum magnitude displayed is 2.5.

Coastal Water Temperatures

Place Temperature
No Stations Reporting

Nearby Weather Stations

Station Location Temp. Heat Index Dew Point Humidity Wind Precip. Elev Updated Type
Grand Forks, ND 76.0 °F 78 °F 58 °F 54% SSW  at  10.0 mph 0.00 in / hr 830 ft 5:44 PM CDT Rapid Fire
NDDOT Grand Forks I-29 MP 145, Grand Forks, ND 76 °F 78 °F 54 °F 48% NNW  at  9 mph 0.00 in / hr 916 ft 6:06 PM CDT MADIS

Show More Stations Show Fewer Stations